sensor_id;sensor_type;location;lat;lon;timestamp;pressure;altitude;pressure_sealevel;temperature;humidity
39455;BME280;25155;41.890;23.446;2023-04-19T00:00:17;91384.00;;;6.33;74.48
39455;BME280;25155;41.890;23.446;2023-04-19T00:02:44;91385.56;;;6.34;74.36
39455;BME280;25155;41.890;23.446;2023-04-19T00:05:13;91384.28;;;6.37;74.24
39455;BME280;25155;41.890;23.446;2023-04-19T00:07:40;91376.97;;;6.39;73.89
39455;BME280;25155;41.890;23.446;2023-04-19T00:10:08;91372.53;;;6.39;73.69
39455;BME280;25155;41.890;23.446;2023-04-19T00:12:35;91376.19;;;6.38;73.51
39455;BME280;25155;41.890;23.446;2023-04-19T00:15:05;91378.00;;;6.38;73.37
39455;BME280;25155;41.890;23.446;2023-04-19T00:17:32;91364.72;;;6.39;73.26
39455;BME280;25155;41.890;23.446;2023-04-19T00:20:00;91368.88;;;6.40;73.64
39455;BME280;25155;41.890;23.446;2023-04-19T00:22:27;91375.63;;;6.41;73.39
39455;BME280;25155;41.890;23.446;2023-04-19T00:24:54;91364.19;;;6.42;73.60
39455;BME280;25155;41.890;23.446;2023-04-19T00:27:21;91366.00;;;6.42;73.11
39455;BME280;25155;41.890;23.446;2023-04-19T00:29:48;91364.44;;;6.41;73.40
39455;BME280;25155;41.890;23.446;2023-04-19T00:32:17;91368.09;;;6.40;73.27
39455;BME280;25155;41.890;23.446;2023-04-19T00:34:44;91361.06;;;6.40;73.46
39455;BME280;25155;41.890;23.446;2023-04-19T00:37:11;91363.16;;;6.44;73.04
39455;BME280;25155;41.890;23.446;2023-04-19T00:39:38;91358.72;;;6.44;73.26
39455;BME280;25155;41.890;23.446;2023-04-19T00:42:05;91357.94;;;6.44;72.92
39455;BME280;25155;41.890;23.446;2023-04-19T00:44:33;91363.41;;;6.42;72.93
39455;BME280;25155;41.890;23.446;2023-04-19T00:47:00;91361.59;;;6.42;73.03
39455;BME280;25155;41.890;23.446;2023-04-19T00:49:29;91359.78;;;6.38;72.58
39455;BME280;25155;41.890;23.446;2023-04-19T00:51:56;91362.13;;;6.39;72.71
39455;BME280;25155;41.890;23.446;2023-04-19T00:54:23;91361.06;;;6.40;72.87
39455;BME280;25155;41.890;23.446;2023-04-19T00:56:52;91362.13;;;6.39;72.66
39455;BME280;25155;41.890;23.446;2023-04-19T00:59:19;91360.56;;;6.38;72.65
39455;BME280;25155;41.890;23.446;2023-04-19T01:01:46;91363.44;;;6.37;72.70
39455;BME280;25155;41.890;23.446;2023-04-19T01:04:16;91361.63;;;6.32;72.90
39455;BME280;25155;41.890;23.446;2023-04-19T01:06:44;91359.53;;;6.34;72.89
39455;BME280;25155;41.890;23.446;2023-04-19T01:09:11;91352.78;;;6.33;72.89
39455;BME280;25155;41.890;23.446;2023-04-19T01:11:38;91351.72;;;6.34;73.21
39455;BME280;25155;41.890;23.446;2023-04-19T01:14:06;91346.78;;;6.33;73.37
39455;BME280;25155;41.890;23.446;2023-04-19T01:16:33;91347.31;;;6.30;73.53
39455;BME280;25155;41.890;23.446;2023-04-19T01:19:01;91351.00;;;6.29;73.53
39455;BME280;25155;41.890;23.446;2023-04-19T01:21:28;91348.13;;;6.30;73.26
39455;BME280;25155;41.890;23.446;2023-04-19T01:23:58;91347.31;;;6.30;73.11
39455;BME280;25155;41.890;23.446;2023-04-19T01:26:25;91350.16;;;6.33;73.47
39455;BME280;25155;41.890;23.446;2023-04-19T01:28:52;91356.69;;;6.36;73.28
39455;BME280;25155;41.890;23.446;2023-04-19T01:31:19;91342.09;;;6.35;73.14
39455;BME280;25155;41.890;23.446;2023-04-19T01:33:46;91351.72;;;6.34;72.73
39455;BME280;25155;41.890;23.446;2023-04-19T01:36:13;91351.72;;;6.34;72.32
39455;BME280;25155;41.890;23.446;2023-04-19T01:38:40;91353.84;;;6.32;72.61
39455;BME280;25155;41.890;23.446;2023-04-19T01:41:09;91344.50;;;6.26;72.89
39455;BME280;25155;41.890;23.446;2023-04-19T01:43:36;91348.41;;;6.23;72.77
39455;BME280;25155;41.890;23.446;2023-04-19T01:46:03;91350.50;;;6.21;72.73
39455;BME280;25155;41.890;23.446;2023-04-19T01:48:30;91350.22;;;6.23;72.77
39455;BME280;25155;41.890;23.446;2023-04-19T01:50:57;91345.03;;;6.23;72.93
39455;BME280;25155;41.890;23.446;2023-04-19T01:53:25;91352.28;;;6.26;72.55
39455;BME280;25155;41.890;23.446;2023-04-19T01:55:52;91348.66;;;6.27;72.54
39455;BME280;25155;41.890;23.446;2023-04-19T01:58:20;91345.53;;;6.25;72.49
39455;BME280;25155;41.890;23.446;2023-04-19T02:00:47;91348.97;;;6.10;73.46
39455;BME280;25155;41.890;23.446;2023-04-19T02:03:14;91348.50;;;6.03;72.99
39455;BME280;25155;41.890;23.446;2023-04-19T02:05:41;91342.53;;;6.02;73.16
39455;BME280;25155;41.890;23.446;2023-04-19T02:08:08;91348.25;;;6.04;72.89
39455;BME280;25155;41.890;23.446;2023-04-19T02:10:35;91351.34;;;6.07;72.86
39455;BME280;25155;41.890;23.446;2023-04-19T02:13:02;91350.81;;;6.10;73.12
39455;BME280;25155;41.890;23.446;2023-04-19T02:15:31;91346.69;;;6.09;72.74
39455;BME280;25155;41.890;23.446;2023-04-19T02:17:58;91349.78;;;6.11;72.58
39455;BME280;25155;41.890;23.446;2023-04-19T02:20:25;91346.38;;;6.10;72.63
39455;BME280;25155;41.890;23.446;2023-04-19T02:22:53;91346.91;;;6.12;72.45
39455;BME280;25155;41.890;23.446;2023-04-19T02:25:20;91346.66;;;6.14;72.52
39455;BME280;25155;41.890;23.446;2023-04-19T02:27:47;91341.72;;;6.12;73.01
39455;BME280;25155;41.890;23.446;2023-04-19T02:30:14;91341.50;;;5.98;73.31
39455;BME280;25155;41.890;23.446;2023-04-19T02:32:43;91349.34;;;5.88;72.72
39455;BME280;25155;41.890;23.446;2023-04-19T02:35:11;91343.38;;;5.88;72.79
39455;BME280;25155;41.890;23.446;2023-04-19T02:37:38;91344.66;;;5.90;72.61
39455;BME280;25155;41.890;23.446;2023-04-19T02:40:06;91347.25;;;5.90;72.64
39455;BME280;25155;41.890;23.446;2023-04-19T02:42:34;91341.00;;;5.91;72.24
39455;BME280;25155;41.890;23.446;2023-04-19T02:45:01;91343.88;;;5.90;71.73
39455;BME280;25155;41.890;23.446;2023-04-19T02:47:28;91341.28;;;5.90;71.97
39455;BME280;25155;41.890;23.446;2023-04-19T02:49:57;91338.69;;;5.84;71.75
39455;BME280;25155;41.890;23.446;2023-04-19T02:52:25;91335.31;;;5.84;71.80
39455;BME280;25155;41.890;23.446;2023-04-19T02:54:52;91335.84;;;5.81;71.68
39455;BME280;25155;41.890;23.446;2023-04-19T02:57:19;91338.47;;;5.76;71.41
39455;BME280;25155;41.890;23.446;2023-04-19T02:59:46;91343.41;;;5.72;71.30
39455;BME280;25155;41.890;23.446;2023-04-19T03:02:13;91336.94;;;5.70;71.57
39455;BME280;25155;41.890;23.446;2023-04-19T03:04:40;91332.00;;;5.68;71.37
39455;BME280;25155;41.890;23.446;2023-04-19T03:07:09;91342.66;;;5.66;71.10
39455;BME280;25155;41.890;23.446;2023-04-19T03:09:36;91338.50;;;5.65;71.00
39455;BME280;25155;41.890;23.446;2023-04-19T03:12:03;91343.72;;;5.60;71.22
39455;BME280;25155;41.890;23.446;2023-04-19T03:14:31;91335.94;;;5.55;71.01
39455;BME280;25155;41.890;23.446;2023-04-19T03:16:58;91337.00;;;5.54;71.28
39455;BME280;25155;41.890;23.446;2023-04-19T03:19:25;91327.88;;;5.52;71.36
39455;BME280;25155;41.890;23.446;2023-04-19T03:21:53;91327.13;;;5.51;71.10
39455;BME280;25155;41.890;23.446;2023-04-19T03:24:27;91328.66;;;5.42;71.16
39455;BME280;25155;41.890;23.446;2023-04-19T03:26:55;91329.69;;;5.36;71.70
39455;BME280;25155;41.890;23.446;2023-04-19T03:29:22;91327.91;;;5.31;71.47
39455;BME280;25155;41.890;23.446;2023-04-19T03:31:49;91324.78;;;5.24;71.83
39455;BME280;25155;41.890;23.446;2023-04-19T03:34:16;91320.91;;;5.21;71.22
39455;BME280;25155;41.890;23.446;2023-04-19T03:36:43;91323.50;;;5.21;71.60
39455;BME280;25155;41.890;23.446;2023-04-19T03:39:10;91327.66;;;5.22;71.26
39455;BME280;25155;41.890;23.446;2023-04-19T03:41:39;91330.50;;;5.21;71.36
39455;BME280;25155;41.890;23.446;2023-04-19T03:44:06;91330.25;;;5.22;71.47
39455;BME280;25155;41.890;23.446;2023-04-19T03:46:33;91328.44;;;5.23;71.27
39455;BME280;25155;41.890;23.446;2023-04-19T03:49:00;91330.00;;;5.24;70.86
39455;BME280;25155;41.890;23.446;2023-04-19T03:51:27;91324.78;;;5.24;71.34
39455;BME280;25155;41.890;23.446;2023-04-19T03:53:56;91330.78;;;5.24;71.22
39455;BME280;25155;41.890;23.446;2023-04-19T03:56:23;91334.16;;;5.25;71.25
39455;BME280;25155;41.890;23.446;2023-04-19T03:58:51;91333.66;;;5.18;70.75
39455;BME280;25155;41.890;23.446;2023-04-19T04:01:18;91324.31;;;5.11;71.07
39455;BME280;25155;41.890;23.446;2023-04-19T04:03:46;91328.72;;;5.11;71.13
39455;BME280;25155;41.890;23.446;2023-04-19T04:06:13;91332.88;;;5.07;71.85
39455;BME280;25155;41.890;23.446;2023-04-19T04:08:40;91333.91;;;5.06;71.90
39455;BME280;25155;41.890;23.446;2023-04-19T04:11:07;91328.44;;;5.07;71.42
39455;BME280;25155;41.890;23.446;2023-04-19T04:13:34;91328.19;;;5.09;71.62
39455;BME280;25155;41.890;23.446;2023-04-19T04:16:03;91337.81;;;4.98;70.47
39455;BME280;25155;41.890;23.446;2023-04-19T04:18:30;91331.59;;;4.89;70.96
39455;BME280;25155;41.890;23.446;2023-04-19T04:20:57;91335.22;;;4.78;71.09
39455;BME280;25155;41.890;23.446;2023-04-19T04:23:25;91340.16;;;4.74;71.55
39455;BME280;25155;41.890;23.446;2023-04-19T04:25:56;91344.31;;;4.70;71.72
39455;BME280;25155;41.890;23.446;2023-04-19T04:28:25;91347.94;;;4.69;71.94
39455;BME280;25155;41.890;23.446;2023-04-19T04:30:52;91344.06;;;4.66;72.07
39455;BME280;25155;41.890;23.446;2023-04-19T04:33:24;91344.28;;;4.60;72.48
39455;BME280;25155;41.890;23.446;2023-04-19T04:35:52;91337.81;;;4.62;72.36
39455;BME280;25155;41.890;23.446;2023-04-19T04:38:19;91344.84;;;4.67;73.17
39455;BME280;25155;41.890;23.446;2023-04-19T04:40:48;91343.78;;;4.63;72.53
39455;BME280;25155;41.890;23.446;2023-04-19T04:43:18;91342.25;;;4.67;72.83
39455;BME280;25155;41.890;23.446;2023-04-19T04:45:46;91334.44;;;4.72;73.12
39455;BME280;25155;41.890;23.446;2023-04-19T04:48:13;91341.72;;;4.75;72.70
39455;BME280;25155;41.890;23.446;2023-04-19T04:50:42;91339.38;;;4.73;72.91
39455;BME280;25155;41.890;23.446;2023-04-19T04:53:09;91344.56;;;4.73;73.11
39455;BME280;25155;41.890;23.446;2023-04-19T04:55:37;91340.66;;;4.76;73.31
39455;BME280;25155;41.890;23.446;2023-04-19T04:58:05;91344.31;;;4.75;74.68
39455;BME280;25155;41.890;23.446;2023-04-19T05:00:32;91328.50;;;4.66;74.94
39455;BME280;25155;41.890;23.446;2023-04-19T05:02:59;91342.50;;;4.70;75.72
39455;BME280;25155;41.890;23.446;2023-04-19T05:05:27;91338.06;;;4.71;76.38
39455;BME280;25155;41.890;23.446;2023-04-19T05:07:56;91338.31;;;4.74;75.95
39455;BME280;25155;41.890;23.446;2023-04-19T05:10:23;91339.13;;;4.75;76.14
39455;BME280;25155;41.890;23.446;2023-04-19T05:12:50;91347.69;;;4.86;75.75
39455;BME280;25155;41.890;23.446;2023-04-19T05:15:17;91344.31;;;4.90;76.14
39455;BME280;25155;41.890;23.446;2023-04-19T05:17:44;91347.16;;;4.94;75.83
39455;BME280;25155;41.890;23.446;2023-04-19T05:20:11;91345.88;;;4.97;76.23
39455;BME280;25155;41.890;23.446;2023-04-19T05:22:38;91353.16;;;5.00;76.10
39455;BME280;25155;41.890;23.446;2023-04-19T05:25:09;91352.63;;;5.03;75.77
39455;BME280;25155;41.890;23.446;2023-04-19T05:27:36;91354.69;;;5.11;76.09
39455;BME280;25155;41.890;23.446;2023-04-19T05:30:04;91356.78;;;5.19;75.61
39455;BME280;25155;41.890;23.446;2023-04-19T05:32:32;91356.50;;;5.26;75.84
39455;BME280;25155;41.890;23.446;2023-04-19T05:34:59;91347.91;;;5.30;75.67
39455;BME280;25155;41.890;23.446;2023-04-19T05:37:26;91353.63;;;5.38;75.69
39455;BME280;25155;41.890;23.446;2023-04-19T05:39:55;91350.22;;;5.42;75.67
39455;BME280;25155;41.890;23.446;2023-04-19T05:42:24;91351.28;;;5.46;75.20
39455;BME280;25155;41.890;23.446;2023-04-19T05:44:51;91354.91;;;5.56;75.17
39455;BME280;25155;41.890;23.446;2023-04-19T05:47:18;91353.34;;;5.60;75.05
39455;BME280;25155;41.890;23.446;2023-04-19T05:49:45;91355.66;;;5.66;75.27
39455;BME280;25155;41.890;23.446;2023-04-19T05:52:12;91354.59;;;5.73;74.68
39455;BME280;25155;41.890;23.446;2023-04-19T05:54:39;91358.22;;;5.77;74.80
39455;BME280;25155;41.890;23.446;2023-04-19T05:57:08;91357.69;;;5.80;74.77
39455;BME280;25155;41.890;23.446;2023-04-19T05:59:37;91357.19;;;5.78;74.35
39455;BME280;25155;41.890;23.446;2023-04-19T06:02:04;91357.16;;;5.83;74.33
39455;BME280;25155;41.890;23.446;2023-04-19T06:04:31;91356.09;;;5.89;74.37
39455;BME280;25155;41.890;23.446;2023-04-19T06:06:58;91350.88;;;5.94;74.63
39455;BME280;25155;41.890;23.446;2023-04-19T06:09:25;91350.59;;;6.01;74.17
39455;BME280;25155;41.890;23.446;2023-04-19T06:11:52;91352.66;;;6.04;74.32
39455;BME280;25155;41.890;23.446;2023-04-19T06:14:21;91353.44;;;6.04;74.23
39455;BME280;25155;41.890;23.446;2023-04-19T06:16:50;91350.53;;;6.11;74.57
39455;BME280;25155;41.890;23.446;2023-04-19T06:19:17;91348.16;;;6.20;74.17
39455;BME280;25155;41.890;23.446;2023-04-19T06:21:44;91348.13;;;6.25;74.64
39455;BME280;25155;41.890;23.446;2023-04-19T06:24:12;91353.06;;;6.32;74.43
39455;BME280;25155;41.890;23.446;2023-04-19T06:26:39;91353.03;;;6.37;74.58
39455;BME280;25155;41.890;23.446;2023-04-19T06:29:06;91357.94;;;6.44;74.65
39455;BME280;25155;41.890;23.446;2023-04-19T06:31:33;91351.09;;;6.53;74.67
39455;BME280;25155;41.890;23.446;2023-04-19T06:34:02;91345.09;;;6.57;74.69
39455;BME280;25155;41.890;23.446;2023-04-19T06:36:29;91345.81;;;6.63;74.60
39455;BME280;25155;41.890;23.446;2023-04-19T06:38:56;91350.53;;;6.61;74.68
39455;BME280;25155;41.890;23.446;2023-04-19T06:41:23;91348.72;;;6.62;74.05
39455;BME280;25155;41.890;23.446;2023-04-19T06:43:50;91357.81;;;6.64;74.44
39455;BME280;25155;41.890;23.446;2023-04-19T06:46:17;91347.84;;;6.71;74.29
39455;BME280;25155;41.890;23.446;2023-04-19T06:48:44;91355.88;;;6.80;74.06
39455;BME280;25155;41.890;23.446;2023-04-19T06:51:13;91355.56;;;6.87;73.98
39455;BME280;25155;41.890;23.446;2023-04-19T06:53:40;91353.94;;;6.96;73.88
39455;BME280;25155;41.890;23.446;2023-04-19T06:56:09;91355.19;;;7.04;74.09
39455;BME280;25155;41.890;23.446;2023-04-19T06:58:37;91353.56;;;7.13;74.12
39455;BME280;25155;41.890;23.446;2023-04-19T07:01:04;91358.41;;;7.25;73.68
39455;BME280;25155;41.890;23.446;2023-04-19T07:03:32;91356.72;;;7.39;74.18
39455;BME280;25155;41.890;23.446;2023-04-19T07:05:59;91353.75;;;7.51;73.35
39455;BME280;25155;41.890;23.446;2023-04-19T07:08:28;91355.53;;;7.56;72.90
39455;BME280;25155;41.890;23.446;2023-04-19T07:10:55;91358.13;;;7.56;71.13
39455;BME280;25155;41.890;23.446;2023-04-19T07:13:22;91353.09;;;7.64;71.44
39455;BME280;25155;41.890;23.446;2023-04-19T07:15:49;91359.75;;;7.76;72.05
39455;BME280;25155;41.890;23.446;2023-04-19T07:18:17;91355.72;;;7.88;72.04
39455;BME280;25155;41.890;23.446;2023-04-19T07:20:44;91355.88;;;7.97;71.34
39455;BME280;25155;41.890;23.446;2023-04-19T07:23:14;91349.75;;;8.07;70.69
39455;BME280;25155;41.890;23.446;2023-04-19T07:25:42;91354.97;;;8.07;69.10
39455;BME280;25155;41.890;23.446;2023-04-19T07:28:09;91355.91;;;8.16;69.92
39455;BME280;25155;41.890;23.446;2023-04-19T07:30:36;91362.63;;;8.22;67.71
39455;BME280;25155;41.890;23.446;2023-04-19T07:33:03;91354.66;;;8.33;68.40
39455;BME280;25155;41.890;23.446;2023-04-19T07:35:33;91354.03;;;8.41;67.77
39455;BME280;25155;41.890;23.446;2023-04-19T07:38:01;91351.78;;;8.53;68.24
39455;BME280;25155;41.890;23.446;2023-04-19T07:40:28;91357.44;;;8.60;67.58
39455;BME280;25155;41.890;23.446;2023-04-19T07:42:57;91359.44;;;8.69;66.22
39455;BME280;25155;41.890;23.446;2023-04-19T07:45:24;91354.53;;;8.81;67.10
39455;BME280;25155;41.890;23.446;2023-04-19T07:47:51;91357.03;;;8.91;66.98
39455;BME280;25155;41.890;23.446;2023-04-19T07:50:18;91356.38;;;8.99;66.58
39455;BME280;25155;41.890;23.446;2023-04-19T07:52:45;91352.22;;;8.98;65.69
39455;BME280;25155;41.890;23.446;2023-04-19T07:55:12;91355.97;;;8.92;65.08
39455;BME280;25155;41.890;23.446;2023-04-19T07:57:39;91345.00;;;8.90;64.78
39455;BME280;25155;41.890;23.446;2023-04-19T08:00:13;91352.59;;;8.92;65.61
39455;BME280;25155;41.890;23.446;2023-04-19T08:02:42;91351.66;;;9.02;65.33
39455;BME280;25155;41.890;23.446;2023-04-19T08:05:09;91348.53;;;8.99;63.70
39455;BME280;25155;41.890;23.446;2023-04-19T08:07:37;91340.84;;;9.08;66.05
39455;BME280;25155;41.890;23.446;2023-04-19T08:10:05;91330.91;;;9.24;67.67
39455;BME280;25155;41.890;23.446;2023-04-19T08:12:33;91333.84;;;9.36;65.83
39455;BME280;25155;41.890;23.446;2023-04-19T08:15:00;91334.81;;;9.41;64.70
39455;BME280;25155;41.890;23.446;2023-04-19T08:17:29;91333.56;;;9.38;64.35
39455;BME280;25155;41.890;23.446;2023-04-19T08:19:56;91325.81;;;9.47;62.25
39455;BME280;25155;41.890;23.446;2023-04-19T08:22:23;91327.66;;;9.46;63.82
39455;BME280;25155;41.890;23.446;2023-04-19T08:24:50;91321.16;;;9.58;62.99
39455;BME280;25155;41.890;23.446;2023-04-19T08:27:18;91320.97;;;9.54;61.84
39455;BME280;25155;41.890;23.446;2023-04-19T08:29:46;91316.31;;;9.51;61.50
39455;BME280;25155;41.890;23.446;2023-04-19T08:32:13;91313.44;;;9.66;62.89
39455;BME280;25155;41.890;23.446;2023-04-19T08:34:41;91310.16;;;9.74;64.52
39455;BME280;25155;41.890;23.446;2023-04-19T08:37:08;91308.69;;;9.82;64.14
39455;BME280;25155;41.890;23.446;2023-04-19T08:39:35;91291.53;;;9.76;63.33
39455;BME280;25155;41.890;23.446;2023-04-19T08:42:04;91302.97;;;9.80;61.20
39455;BME280;25155;41.890;23.446;2023-04-19T08:44:32;91301.41;;;9.79;62.14
39455;BME280;25155;41.890;23.446;2023-04-19T08:46:59;91307.03;;;9.72;59.90
39455;BME280;25155;41.890;23.446;2023-04-19T08:49:27;91285.13;;;9.68;60.54
39455;BME280;25155;41.890;23.446;2023-04-19T08:51:56;91297.44;;;9.82;62.05
39455;BME280;25155;41.890;23.446;2023-04-19T08:54:23;91294.25;;;9.85;62.08
39455;BME280;25155;41.890;23.446;2023-04-19T08:56:52;91294.91;;;9.90;61.70
39455;BME280;25155;41.890;23.446;2023-04-19T08:59:19;91293.28;;;9.95;59.27
39455;BME280;25155;41.890;23.446;2023-04-19T09:01:46;91290.75;;;10.03;59.31
39455;BME280;25155;41.890;23.446;2023-04-19T09:04:14;91282.78;;;10.22;60.27
39455;BME280;25155;41.890;23.446;2023-04-19T09:06:41;91284.31;;;10.37;58.86
39455;BME280;25155;41.890;23.446;2023-04-19T09:09:18;91273.38;;;10.58;60.67
39455;BME280;25155;41.890;23.446;2023-04-19T09:11:45;91280.84;;;10.87;60.85
39455;BME280;25155;41.890;23.446;2023-04-19T09:14:14;91260.94;;;11.09;60.18
39455;BME280;25155;41.890;23.446;2023-04-19T09:16:41;91273.06;;;11.27;58.50
39455;BME280;25155;41.890;23.446;2023-04-19T09:19:09;91269.31;;;11.51;60.83
39455;BME280;25155;41.890;23.446;2023-04-19T09:21:37;91269.91;;;11.79;60.68
39455;BME280;25155;41.890;23.446;2023-04-19T09:24:05;91277.53;;;11.98;57.15
39455;BME280;25155;41.890;23.446;2023-04-19T09:26:34;91274.41;;;11.87;53.97
39455;BME280;25155;41.890;23.446;2023-04-19T09:29:02;91267.28;;;11.79;56.01
39455;BME280;25155;41.890;23.446;2023-04-19T09:31:32;91281.53;;;11.95;57.50
39455;BME280;25155;41.890;23.446;2023-04-19T09:34:11;91276.78;;;12.06;56.45
39455;BME280;25155;41.890;23.446;2023-04-19T09:36:39;91279.28;;;12.20;56.91
39455;BME280;25155;41.890;23.446;2023-04-19T09:39:07;91284.22;;;12.22;55.33
39455;BME280;25155;41.890;23.446;2023-04-19T09:41:50;91276.19;;;12.27;56.07
39455;BME280;25155;41.890;23.446;2023-04-19T09:44:18;91272.19;;;12.38;56.44
39455;BME280;25155;41.890;23.446;2023-04-19T09:46:46;91268.97;;;12.41;52.20
39455;BME280;25155;41.890;23.446;2023-04-19T09:49:17;91270.19;;;12.44;52.73
39455;BME280;25155;41.890;23.446;2023-04-19T09:51:46;91268.78;;;12.64;54.13
39455;BME280;25155;41.890;23.446;2023-04-19T09:54:16;91266.19;;;12.90;55.60
39455;BME280;25155;41.890;23.446;2023-04-19T09:56:45;91258.41;;;13.20;57.12
39455;BME280;25155;41.890;23.446;2023-04-19T09:59:12;91267.00;;;13.47;56.14
39455;BME280;25155;41.890;23.446;2023-04-19T10:01:43;91271.00;;;13.53;50.60
39455;BME280;25155;41.890;23.446;2023-04-19T10:04:11;91269.97;;;13.36;50.33
39455;BME280;25155;41.890;23.446;2023-04-19T10:06:39;91278.97;;;13.27;51.36
39455;BME280;25155;41.890;23.446;2023-04-19T10:09:06;91267.69;;;13.26;51.83
39455;BME280;25155;41.890;23.446;2023-04-19T10:11:36;91259.16;;;13.29;51.06
39455;BME280;25155;41.890;23.446;2023-04-19T10:14:07;91267.53;;;13.31;52.70
39455;BME280;25155;41.890;23.446;2023-04-19T10:16:36;91259.44;;;13.45;52.83
39455;BME280;25155;41.890;23.446;2023-04-19T10:19:07;91262.03;;;13.54;52.83
39455;BME280;25155;41.890;23.446;2023-04-19T10:21:34;91256.72;;;13.24;52.60
39455;BME280;25155;41.890;23.446;2023-04-19T10:24:01;91257.41;;;13.51;52.09
39455;BME280;25155;41.890;23.446;2023-04-19T10:26:30;91259.22;;;13.59;51.98
39455;BME280;25155;41.890;23.446;2023-04-19T10:29:55;91255.41;;;13.48;49.99
39455;BME280;25155;41.890;23.446;2023-04-19T10:32:22;91252.31;;;13.46;50.67
39455;BME280;25155;41.890;23.446;2023-04-19T10:34:51;91252.44;;;13.49;50.73
39455;BME280;25155;41.890;23.446;2023-04-19T10:37:24;91249.19;;;13.52;48.15
39455;BME280;25155;41.890;23.446;2023-04-19T10:39:52;91249.69;;;13.46;49.22
39455;BME280;25155;41.890;23.446;2023-04-19T10:42:19;91246.28;;;13.45;48.98
39455;BME280;25155;41.890;23.446;2023-04-19T10:47:52;91239.44;;;13.53;49.93
39455;BME280;25155;41.890;23.446;2023-04-19T10:50:22;91234.47;;;13.60;49.50
39455;BME280;25155;41.890;23.446;2023-04-19T10:52:49;91231.47;;;13.70;48.79
39455;BME280;25155;41.890;23.446;2023-04-19T10:55:18;91232.56;;;13.69;48.82
39455;BME280;25155;41.890;23.446;2023-04-19T10:58:01;91229.97;;;13.60;47.73
39455;BME280;25155;41.890;23.446;2023-04-19T11:00:29;91230.72;;;13.61;48.35
39455;BME280;25155;41.890;23.446;2023-04-19T11:02:59;91229.97;;;13.60;48.12
39455;BME280;25155;41.890;23.446;2023-04-19T11:06:14;91236.00;;;13.61;48.77
39455;BME280;25155;41.890;23.446;2023-04-19T11:08:43;91244.31;;;13.72;48.96
39455;BME280;25155;41.890;23.446;2023-04-19T11:11:12;91236.22;;;13.86;50.10
39455;BME280;25155;41.890;23.446;2023-04-19T11:13:41;91229.44;;;14.06;49.10
39455;BME280;25155;41.890;23.446;2023-04-19T11:16:08;91228.78;;;13.79;45.15
39455;BME280;25155;41.890;23.446;2023-04-19T11:18:37;91228.19;;;13.44;44.34
39455;BME280;25155;41.890;23.446;2023-04-19T11:21:04;91231.47;;;13.23;44.96
39455;BME280;25155;41.890;23.446;2023-04-19T11:23:31;91225.00;;;13.12;46.57
39455;BME280;25155;41.890;23.446;2023-04-19T11:25:59;91219.78;;;12.94;45.78
39455;BME280;25155;41.890;23.446;2023-04-19T11:28:26;91226.16;;;12.84;47.25
39455;BME280;25155;41.890;23.446;2023-04-19T11:30:54;91223.50;;;12.93;46.19
39455;BME280;25155;41.890;23.446;2023-04-19T11:33:22;91222.25;;;12.99;47.00
39455;BME280;25155;41.890;23.446;2023-04-19T11:35:51;91213.41;;;13.13;45.57
39455;BME280;25155;41.890;23.446;2023-04-19T11:38:18;91226.53;;;13.21;47.81
39455;BME280;25155;41.890;23.446;2023-04-19T11:40:45;91219.69;;;13.29;47.29
39455;BME280;25155;41.890;23.446;2023-04-19T11:43:13;91217.34;;;13.36;46.07
39455;BME280;25155;41.890;23.446;2023-04-19T11:45:40;91222.03;;;13.31;45.52
39455;BME280;25155;41.890;23.446;2023-04-19T11:48:12;91221.41;;;13.25;46.18
39455;BME280;25155;41.890;23.446;2023-04-19T11:50:41;91218.72;;;13.42;47.21
39455;BME280;25155;41.890;23.446;2023-04-19T11:53:12;91215.81;;;13.27;46.02
39455;BME280;25155;41.890;23.446;2023-04-19T11:55:42;91214.47;;;13.20;46.21
39455;BME280;25155;41.890;23.446;2023-04-19T11:58:22;91218.81;;;13.16;46.25
39455;BME280;25155;41.890;23.446;2023-04-19T12:00:49;91207.16;;;13.26;47.31
39455;BME280;25155;41.890;23.446;2023-04-19T12:03:20;91218.13;;;13.37;46.66
39455;BME280;25155;41.890;23.446;2023-04-19T12:05:51;91212.16;;;13.10;45.06
39455;BME280;25155;41.890;23.446;2023-04-19T12:08:29;91201.31;;;13.20;45.50
39455;BME280;25155;41.890;23.446;2023-04-19T12:10:57;91214.00;;;13.18;42.78
39455;BME280;25155;41.890;23.446;2023-04-19T12:13:25;91228.56;;;13.16;45.30
39455;BME280;25155;41.890;23.446;2023-04-19T12:15:52;91204.13;;;13.07;44.84
39455;BME280;25155;41.890;23.446;2023-04-19T12:18:19;91202.78;;;13.00;47.80
39455;BME280;25155;41.890;23.446;2023-04-19T12:20:48;91214.09;;;12.92;48.56
39455;BME280;25155;41.890;23.446;2023-04-19T12:23:17;91218.25;;;12.58;49.28
39455;BME280;25155;41.890;23.446;2023-04-19T12:25:47;91208.34;;;12.29;49.47
39455;BME280;25155;41.890;23.446;2023-04-19T12:28:14;91198.00;;;12.15;50.06
39455;BME280;25155;41.890;23.446;2023-04-19T12:30:42;91210.28;;;11.71;52.56
39455;BME280;25155;41.890;23.446;2023-04-19T12:33:09;91219.22;;;11.30;53.43
39455;BME280;25155;41.890;23.446;2023-04-19T12:35:36;91232.28;;;11.21;53.62
39455;BME280;25155;41.890;23.446;2023-04-19T12:38:04;91234.59;;;10.91;52.74
39455;BME280;25155;41.890;23.446;2023-04-19T12:40:32;91231.50;;;10.89;52.69
39455;BME280;25155;41.890;23.446;2023-04-19T12:43:00;91222.97;;;11.06;52.22
39455;BME280;25155;41.890;23.446;2023-04-19T12:45:27;91223.78;;;11.15;53.46
39455;BME280;25155;41.890;23.446;2023-04-19T12:47:55;91230.34;;;11.27;53.48
39455;BME280;25155;41.890;23.446;2023-04-19T12:50:22;91227.31;;;11.42;52.42
39455;BME280;25155;41.890;23.446;2023-04-19T12:52:49;91224.06;;;11.45;52.64
39455;BME280;25155;41.890;23.446;2023-04-19T12:55:18;91234.66;;;11.31;52.03
39455;BME280;25155;41.890;23.446;2023-04-19T12:57:45;91245.72;;;11.19;51.75
39455;BME280;25155;41.890;23.446;2023-04-19T13:00:14;91243.38;;;11.18;51.09
39455;BME280;25155;41.890;23.446;2023-04-19T13:02:42;91254.66;;;11.18;51.88
39455;BME280;25155;41.890;23.446;2023-04-19T13:05:09;91260.81;;;11.14;52.01